Πλησιέστερες Αναφορές METAR

 

LGTS - Thessaloniki/Makedonia-Elev 7m
Απόσταση από σταθμό: Ν 13km
Ενημερώθηκε: 01/10/2022 23:50
Διάσπαρτα Νέφη
Διάσπαρτα Νέφη
 Ανεμοι από μεταβλητός
Ανεμος: μεταβλητός 4 km/h
Θερμοκρασία: 20°C
Σημείο Δρόσου: 20°C
Υγρασία: 100%
Βαρόμετρο: 1011 hPa
Νέφωση: Διάσπαρτα Νέφη
Ορατότητα: 10 km
Λεπτομέρειες Νεφών: Διάσπαρτα Νέφη 457 m
2022/10/01 20:50 LGTS 012050Z VRB02KT 9999 FEW015 20/20 Q1011 NOSIG
LGAV - Athens/Elef. Venizelos-Elev 94m
Απόσταση από σταθμό: ΝΝΑ 312km
Ενημερώθηκε: 01/10/2022 23:50
Αίθριος
Αίθριος
 Ανεμοι από ΝΝΔ
Ανεμος: ΝΝΔ 11 km/h
Θερμοκρασία: 23°C
Σημείο Δρόσου: 18°C
Υγρασία: 74%
Βαρόμετρο: 1014 hPa
Περίληψη: Αίθριος
Ορατότητα: πάνω από 10 km
2022/10/01 20:50 LGAV 012050Z 21006KT CAVOK 23/18 Q1014 NOSIG
 
LGAL - Alexandroupolis-Elev 3m
Απόσταση από σταθμό: Α 251km
Ενημερώθηκε: 01/10/2022 23:50
Αίθριος
Αίθριος
 Ανεμοι από άπνοια
Ανεμος: άπνοια
Θερμοκρασία: 18°C
Σημείο Δρόσου: 16°C
Υγρασία: 88%
Βαρόμετρο: 1011 hPa
Περίληψη: Αίθριος
Ορατότητα: πάνω από 10 km
2022/10/01 20:50 LGAL 012050Z 00000KT CAVOK 18/16 Q1011
LGKV - Kavala/Crysoupolis-Elev 5m
Απόσταση από σταθμό: ΑΒΑ 144km
Ενημερώθηκε: 01/10/2022 22:20
ΜΗ Ενημερωμένο METAR!
Αίθριος
Αίθριος
 Ανεμοι από ΑΒΑ
Ανεμος: ΑΒΑ 11 km/h
Θερμοκρασία: 21°C
Σημείο Δρόσου: 19°C
Υγρασία: 88%
Βαρόμετρο: 1013 hPa
Περίληψη: Αίθριος
Ορατότητα: πάνω από 10 km
2022/10/01 19:20 LGKV 011920Z 07006KT CAVOK 21/19 Q1013
 
LGSK - Skiathos Island-Elev 15m
Απόσταση από σταθμό: ΝΝΑ 168km
Ενημερώθηκε: 01/10/2022 21:20
ΜΗ Ενημερωμένο METAR!
Μερικώς νεφελώδης
Μερικώς νεφελώδης
 Ανεμοι από ΝΝΑ
Ανεμος: ΝΝΑ 11 km/h
Θερμοκρασία: 22°C
Σημείο Δρόσου: 19°C
Υγρασία: 83%
Βαρόμετρο: 1012 hPa
Νέφωση: Μερικώς νεφελώδης
Ορατότητα: 10 km
Λεπτομέρειες Νεφών: Μερικώς νεφελώδης 610 m
2022/10/01 18:20 LGSK 011820Z 16006KT 9999 SCT020 22/19 Q1012
LGLM - Limnos Island-Elev 5m
Απόσταση από σταθμό: ΑΝΑ 210km
Ενημερώθηκε: 01/10/2022 23:50
Αίθριος
Αίθριος
 Ανεμοι από ΝΔ
Ανεμος: ΝΔ 19 km/h
Θερμοκρασία: 23°C
Σημείο Δρόσου: 16°C
Υγρασία: 65%
Βαρόμετρο: 1010 hPa
Περίληψη: Αίθριος
Ορατότητα: πάνω από 10 km
2022/10/01 20:50 LGLM 012050Z 22010KT CAVOK 23/16 Q1010
 
LGMT - Mitilini Island-Elev 17m
Απόσταση από σταθμό: ΑΝΑ 358km
Ενημερώθηκε: 01/10/2022 23:50
Αίθριος
Αίθριος
 Ανεμοι από Α
Ανεμος: Α 11 km/h
Θερμοκρασία: 23°C
Σημείο Δρόσου: 13°C
Υγρασία: 53%
Βαρόμετρο: 1015 hPa
Περίληψη: Αίθριος
Ορατότητα: πάνω από 10 km
2022/10/01 20:50 LGMT 012050Z 10006KT CAVOK 23/13 Q1015
LGSY - Skiros Island-Elev 15m
Απόσταση από σταθμό: ΝΑ 227km
Ενημερώθηκε: 01/10/2022 23:50
Αίθριος
Αίθριος
 Ανεμοι από Ν
Ανεμος: Ν 35 km/h, Ριπή: 54 km/h
Θερμοκρασία: 27°C
Δείκτης Δυσφορίας: 28°C
Σημείο Δρόσου: 16°C
Υγρασία: 51%
Βαρόμετρο: 1010 hPa
Περίληψη: Αίθριος
Ορατότητα: πάνω από 10 km
2022/10/01 20:50 LGSY 012050Z 18019G29KT CAVOK 27/16 Q1010 RMK FEW100 SCT180 BLU
 
LGKZ - Kozani-Elev 628m
Απόσταση από σταθμό: ΔΝΔ 102km
Ενημερώθηκε: 01/10/2022 23:50
Ασθενής βροχή
Ασθενής βροχή
 Ανεμοι από μεταβλητός
Ανεμος: μεταβλητός 2 km/h
Θερμοκρασία: 19°C
Σημείο Δρόσου: 13°C
Υγρασία: 68%
Βαρόμετρο: 1013 hPa
Περίληψη: Ασθενής βροχή
2022/10/01 20:50 LGKZ 012050Z AUTO VRB01KT //// -RA ////// 19/13 Q1013 RE//
LGIO - Ioannina-Elev 476m
Απόσταση από σταθμό: ΔΝΔ 209km
Ενημερώθηκε: 01/10/2022 23:50
Ασθενής βροχή
Ασθενής βροχή
 Ανεμοι από Δ
Ανεμος: Δ 20 km/h
Θερμοκρασία: 21°C
Σημείο Δρόσου: 18°C
Υγρασία: 83%
Βαρόμετρο: 1016 hPa
Περίληψη: Ασθενής βροχή
2022/10/01 20:50 LGIO 012050Z AUTO 26011KT 230V320 //// -RA ////// 21/18 Q1016 RE//
 
LGZA - Zakinthos-Elev 3m
Απόσταση από σταθμό: ΝΝΔ 367km
Ενημερώθηκε: 01/10/2022 22:50
ΜΗ Ενημερωμένο METAR!
Σχεδόν νεφελώδης
Σχεδόν νεφελώδης
 Ανεμοι από άπνοια
Ανεμος: άπνοια
Θερμοκρασία: 26°C
Σημείο Δρόσου: 24°C
Υγρασία: 89%
Βαρόμετρο: 1016 hPa
Νέφωση: Σχεδόν νεφελώδης
Ορατότητα: 10 km
Λεπτομέρειες Νεφών: Διάσπαρτα Νέφη 549 m
Μερικώς νεφελώδης 762 m
Σχεδόν νεφελώδης 2134 m
2022/10/01 19:50 LGZA 011950Z 00000KT 9999 FEW018 SCT025 BKN070 26/24 Q1016
LGKR - Corfu Island-Elev 2m
Απόσταση από σταθμό: ΔΝΔ 282km
Ενημερώθηκε: 01/10/2022 23:50
Μερικώς νεφελώδης
Μερικώς νεφελώδης
 Ανεμοι από Δ
Ανεμος: Δ 31 km/h
Θερμοκρασία: 24°C
Σημείο Δρόσου: 17°C
Υγρασία: 65%
Βαρόμετρο: 1014 hPa
Νέφωση: Μερικώς νεφελώδης
Ορατότητα: 10 km
Λεπτομέρειες Νεφών: Διάσπαρτα Νέφη 366 m
Μερικώς νεφελώδης 762 m
2022/10/01 20:50 LGKR 012050Z 27017KT 9999 FEW012 SCT025 24/17 Q1014 NOSIG
 
LGSO - Syros Island-Elev 72m
Απόσταση από σταθμό: ΝΝΑ 397km
Ενημερώθηκε: 01/10/2022 23:50

 Ανεμοι από Ν
Ανεμος: Ν 19 km/h
Θερμοκρασία: 25°C
Σημείο Δρόσου: 20°C
Υγρασία: 74%
Βαρόμετρο: 1015 hPa
2022/10/01 20:50 LGSO 012050Z AUTO 19010KT 160V220 //// // ////// 25/20 Q1015 RERA
LGMK - Mikonos Island-Elev 123m
Απόσταση από σταθμό: ΝΝΑ 412km
Ενημερώθηκε: 01/10/2022 23:50
Αίθριος
Αίθριος
 Ανεμοι από μεταβλητός
Ανεμος: μεταβλητός 0 km/h
Θερμοκρασία: 25°C
Σημείο Δρόσου: 17°C
Υγρασία: 61%
Βαρόμετρο: 1015 hPa
Περίληψη: Αίθριος
Ορατότητα: πάνω από 10 km
2022/10/01 20:50 LGMK 012050Z /////KT CAVOK 25/17 Q1015
 
LGSR - Santorini Island-Elev 40m
Απόσταση από σταθμό: ΝΝΑ 520km
Ενημερώθηκε: 01/10/2022 23:50
Αίθριος
Αίθριος
 Ανεμοι από άπνοια
Ανεμος: άπνοια
Θερμοκρασία: 25°C
Σημείο Δρόσου: 15°C
Υγρασία: 54%
Βαρόμετρο: 1016 hPa
Περίληψη: Αίθριος
Ορατότητα: πάνω από 10 km
2022/10/01 20:50 LGSR 012050Z 00000KT CAVOK 25/15 Q1016
LGKL - Kalamata-Elev 8m
Απόσταση από σταθμό: Ν 405km
Ενημερώθηκε: 01/10/2022 23:50
Σχεδόν νεφελώδης
Σχεδόν νεφελώδης
 Ανεμοι από άπνοια
Ανεμος: άπνοια
Θερμοκρασία: 23°C
Σημείο Δρόσου: 21°C
Υγρασία: 89%
Βαρόμετρο: 1016 hPa
Νέφωση: Σχεδόν νεφελώδης
Ορατότητα: 10 km
Λεπτομέρειες Νεφών: Διάσπαρτα Νέφη 914 m
Σχεδόν νεφελώδης 2134 m
2022/10/01 20:50 LGKL 012050Z 00000KT 9999 FEW030 BKN070 23/21 Q1016
 
LGIR - Iraklion/Crete-Elev 5m
Απόσταση από σταθμό: ΝΝΑ 622km
Ενημερώθηκε: 01/10/2022 23:50
Αίθριος
Αίθριος
 Ανεμοι από Ν
Ανεμος: Ν 11 km/h
Θερμοκρασία: 23°C
Σημείο Δρόσου: 19°C
Υγρασία: 78%
Βαρόμετρο: 1017 hPa
Περίληψη: Αίθριος
Ορατότητα: πάνω από 10 km
2022/10/01 20:50 LGIR 012050Z 17006KT CAVOK 23/19 Q1017 NOSIG
LGRP - Rhodes-Elev 5m
Απόσταση από σταθμό: ΝΑ 649km
Ενημερώθηκε: 01/10/2022 23:50
Αίθριος
Αίθριος
 Ανεμοι από μεταβλητός
Ανεμος: μεταβλητός 6 km/h
Θερμοκρασία: 28°C
Δείκτης Δυσφορίας: 27°C
Σημείο Δρόσου: 13°C
Υγρασία: 40%
Βαρόμετρο: 1015 hPa
Περίληψη: Αίθριος
Ορατότητα: πάνω από 10 km
2022/10/01 20:50 LGRP 012050Z VRB03KT CAVOK 28/13 Q1015 NOSIG
 
LWOH - Ohrid/FYROM-Elev 761m
Απόσταση από σταθμό: ΔΒΔ 188km
Ενημερώθηκε: 01/10/2022 22:00
ΜΗ Ενημερωμένο METAR!
Thunderstorm rain, Συννεφιά
Thunderstorm rain, Συννεφιά
 Ανεμοι από ΒΔ
Ανεμος: ΒΔ 9 km/h
Θερμοκρασία: 17°C
Σημείο Δρόσου: 15°C
Υγρασία: 88%
Βαρόμετρο: 1015 hPa
Περίληψη: Thunderstorm Rain
Νέφωση: Συννεφιά
Ορατότητα: 5 km
Λεπτομέρειες Νεφών: Μερικώς νεφελώδης 1006 m
Συννεφιά 1219 m
2022/10/01 19:00 LWOH 011900Z 31005KT 290V010 5000 TSRA SCT033CB OVC040 17/15 Q1015
LBSF - Sofia/Bulgaria-Elev 595m
Απόσταση από σταθμό: Β 227km
Ενημερώθηκε: 02/10/2022 00:00
Ασθενής βροχή, Showers, Μερικώς νεφελώδης
Ασθενής βροχή, Showers, Μερικώς νεφελώδης
 Ανεμοι από ΝΔ
Ανεμος: ΝΔ 11 km/h
Θερμοκρασία: 16°C
Σημείο Δρόσου: 16°C
Υγρασία: 100%
Βαρόμετρο: 1014 hPa
Περίληψη: Ασθενής βροχή, Showers
Νέφωση: Μερικώς νεφελώδης
Ορατότητα: 10 km
Λεπτομέρειες Νεφών: Μερικώς νεφελώδης 244 m
2022/10/01 21:00 LBSF 012100Z AUTO 22006KT 9999 -SHRA SCT008/// 16/16 Q1014 TEMPO 5000 SHRA